createdAt,value
2018-04-06T00:00:18.330Z,2.79
2018-04-06T00:02:45.835Z,2.79
2018-04-06T00:05:13.398Z,2.88
2018-04-06T00:07:40.977Z,2.77
2018-04-06T00:10:08.538Z,2.80
2018-04-06T00:12:36.046Z,2.79
2018-04-06T00:15:03.623Z,2.72
2018-04-06T00:17:31.132Z,2.70
2018-04-06T00:19:58.723Z,2.74
2018-04-06T00:22:26.287Z,2.75
2018-04-06T00:24:53.895Z,2.76
2018-04-06T00:27:21.398Z,2.75
2018-04-06T00:29:48.912Z,2.70
2018-04-06T00:32:16.424Z,2.71
2018-04-06T00:34:43.936Z,2.73
2018-04-06T00:37:11.441Z,2.70
2018-04-06T00:39:38.938Z,2.66
2018-04-06T00:42:06.440Z,2.65
2018-04-06T00:44:33.914Z,2.67
2018-04-06T00:47:01.439Z,2.66
2018-04-06T00:49:28.936Z,2.65
2018-04-06T00:51:56.639Z,2.61
2018-04-06T00:54:24.134Z,2.61
2018-04-06T00:56:51.632Z,2.61
2018-04-06T00:59:19.122Z,2.58
2018-04-06T01:01:46.653Z,2.59
2018-04-06T01:04:14.167Z,2.57
2018-04-06T01:06:41.667Z,2.57
2018-04-06T01:09:09.160Z,2.52
2018-04-06T01:11:36.638Z,2.56
2018-04-06T01:14:04.136Z,2.57
2018-04-06T01:16:31.614Z,2.56
2018-04-06T01:18:59.106Z,2.57
2018-04-06T01:21:26.610Z,2.55
2018-04-06T01:23:54.186Z,2.58
2018-04-06T01:26:21.701Z,2.58
2018-04-06T01:28:49.244Z,2.56
2018-04-06T01:31:16.727Z,2.57
2018-04-06T01:33:44.225Z,2.54
2018-04-06T01:36:11.745Z,2.51
2018-04-06T01:38:39.264Z,2.47
2018-04-06T01:41:06.792Z,2.49
2018-04-06T01:43:34.284Z,2.47
2018-04-06T01:46:01.774Z,2.41
2018-04-06T01:48:29.299Z,2.41
2018-04-06T01:50:56.799Z,2.36
2018-04-06T01:53:24.393Z,2.35
2018-04-06T01:55:51.905Z,2.32
2018-04-06T01:58:19.412Z,2.33
2018-04-06T02:00:46.893Z,2.27
2018-04-06T02:03:14.480Z,2.24
2018-04-06T02:05:41.994Z,2.23
2018-04-06T02:08:09.504Z,2.20
2018-04-06T02:10:37.117Z,2.21
2018-04-06T02:13:04.598Z,2.21
2018-04-06T02:15:32.092Z,2.20
2018-04-06T02:17:59.654Z,2.20
2018-04-06T02:20:27.140Z,2.21
2018-04-06T02:22:54.644Z,2.22
2018-04-06T02:25:22.188Z,2.20
2018-04-06T02:27:49.676Z,2.18
2018-04-06T02:30:17.209Z,2.12
2018-04-06T02:32:44.726Z,2.08
2018-04-06T02:35:12.219Z,2.01
2018-04-06T02:37:39.690Z,1.99
2018-04-06T02:40:07.202Z,1.94
2018-04-06T02:42:34.736Z,1.96
2018-04-06T02:45:02.259Z,1.90
2018-04-06T02:47:29.752Z,1.90
2018-04-06T02:49:57.299Z,1.89
2018-04-06T02:52:24.834Z,1.91
2018-04-06T02:54:52.330Z,1.89
2018-04-06T02:57:19.831Z,1.84
2018-04-06T02:59:47.328Z,1.83
2018-04-06T03:02:14.843Z,1.76
2018-04-06T03:04:42.376Z,1.80
2018-04-06T03:07:09.866Z,1.78
2018-04-06T03:09:37.338Z,1.77
2018-04-06T03:12:04.821Z,1.76
2018-04-06T03:14:32.306Z,1.75
2018-04-06T03:16:59.791Z,1.74
2018-04-06T03:19:27.263Z,1.72
2018-04-06T03:21:54.748Z,1.70
2018-04-06T03:24:22.247Z,1.65
2018-04-06T03:26:49.778Z,1.64
2018-04-06T03:29:17.267Z,1.59
2018-04-06T03:31:44.775Z,1.59
2018-04-06T03:34:12.264Z,1.57
2018-04-06T03:36:39.752Z,1.52
2018-04-06T03:39:07.236Z,1.51
2018-04-06T03:41:34.702Z,1.45
2018-04-06T03:44:02.219Z,1.47
2018-04-06T03:46:29.722Z,1.39
2018-04-06T03:48:57.226Z,1.42
2018-04-06T03:51:24.707Z,1.38
2018-04-06T03:53:52.199Z,1.35
2018-04-06T03:56:19.679Z,1.34
2018-04-06T03:58:47.184Z,1.32
2018-04-06T04:01:14.682Z,1.26
2018-04-06T04:03:42.181Z,1.24
2018-04-06T04:06:09.670Z,1.17
2018-04-06T04:08:37.152Z,1.17
2018-04-06T04:11:04.723Z,1.20
2018-04-06T04:13:32.233Z,1.15
2018-04-06T04:15:59.732Z,1.10
2018-04-06T04:18:27.265Z,1.17
2018-04-06T04:20:54.757Z,1.14
2018-04-06T04:23:22.232Z,1.12
2018-04-06T04:25:50.086Z,1.13
2018-04-06T04:28:17.592Z,1.12
2018-04-06T04:30:45.097Z,1.05
2018-04-06T04:33:12.601Z,1.11
2018-04-06T04:35:40.082Z,1.13
2018-04-06T04:38:07.572Z,1.04
2018-04-06T04:40:35.043Z,1.04
2018-04-06T04:43:02.564Z,1.01
2018-04-06T04:45:30.074Z,1.09
2018-04-06T04:47:57.561Z,1.14
2018-04-06T04:50:25.042Z,1.17
2018-04-06T04:52:52.509Z,1.20
2018-04-06T04:55:20.056Z,1.30
2018-04-06T04:57:47.534Z,1.28
2018-04-06T05:00:15.055Z,1.38
2018-04-06T05:02:42.564Z,1.37
2018-04-06T05:05:10.050Z,1.43
2018-04-06T05:07:37.529Z,1.47
2018-04-06T05:10:04.999Z,1.52
2018-04-06T05:12:32.479Z,1.57
2018-04-06T05:14:59.934Z,1.57
2018-04-06T05:17:27.444Z,1.66
2018-04-06T05:19:54.926Z,1.67
2018-04-06T05:22:22.409Z,1.75
2018-04-06T05:24:49.956Z,1.81
2018-04-06T05:27:17.493Z,1.83
2018-04-06T05:29:44.990Z,1.87
2018-04-06T05:32:12.496Z,1.90
2018-04-06T05:34:40.031Z,1.98
2018-04-06T05:37:07.537Z,2.12
2018-04-06T05:39:35.023Z,2.12
2018-04-06T05:42:02.554Z,2.21
2018-04-06T05:44:31.565Z,2.31
2018-04-06T05:47:02.618Z,2.37
2018-04-06T05:49:32.743Z,2.51
2018-04-06T05:52:01.271Z,2.60
2018-04-06T05:54:28.763Z,2.71
2018-04-06T05:56:56.273Z,2.79
2018-04-06T05:59:24.217Z,3.13
2018-04-06T06:01:53.434Z,4.34
2018-04-06T06:04:20.966Z,5.43
2018-04-06T06:06:48.460Z,6.53
2018-04-06T06:09:15.961Z,7.25
2018-04-06T06:11:43.829Z,7.87
2018-04-06T06:14:11.826Z,8.38
2018-04-06T06:16:39.334Z,8.59
2018-04-06T06:19:06.840Z,9.12
2018-04-06T06:21:34.371Z,9.63
2018-04-06T06:24:01.862Z,10.13
2018-04-06T06:26:30.040Z,10.71
2018-04-06T06:28:57.565Z,10.43
2018-04-06T06:31:25.034Z,11.31
2018-04-06T06:33:52.545Z,11.89
2018-04-06T06:36:20.210Z,11.04
2018-04-06T06:38:49.948Z,11.12
2018-04-06T06:41:17.508Z,11.74
2018-04-06T06:43:45.025Z,11.29
2018-04-06T06:46:12.545Z,11.26
2018-04-06T06:48:40.068Z,11.48
2018-04-06T06:51:07.582Z,10.41
2018-04-06T06:53:35.071Z,10.73
2018-04-06T06:56:02.562Z,11.23
2018-04-06T06:58:30.043Z,11.57
2018-04-06T07:00:57.633Z,11.44
2018-04-06T07:03:25.085Z,10.54
2018-04-06T07:05:52.571Z,10.87
2018-04-06T07:08:21.732Z,10.66
2018-04-06T07:10:49.231Z,11.12
2018-04-06T07:13:16.741Z,11.50
2018-04-06T07:15:44.257Z,11.60
2018-04-06T07:18:13.259Z,11.30
2018-04-06T07:20:40.774Z,11.12
2018-04-06T07:23:08.279Z,11.14
2018-04-06T07:25:38.119Z,11.15
2018-04-06T07:28:05.635Z,11.18
2018-04-06T07:30:34.372Z,12.41
2018-04-06T07:33:03.719Z,11.28
2018-04-06T07:35:31.228Z,11.01
2018-04-06T07:37:58.706Z,12.40
2018-04-06T07:40:29.980Z,12.97
2018-04-06T07:42:57.768Z,13.29
2018-04-06T07:45:25.266Z,13.51
2018-04-06T07:47:56.608Z,14.12
2018-04-06T07:50:24.121Z,14.22
2018-04-06T07:52:58.095Z,13.08
2018-04-06T07:55:25.636Z,13.29
2018-04-06T07:57:53.132Z,13.48
2018-04-06T08:00:22.209Z,13.62
2018-04-06T08:02:49.700Z,13.34
2018-04-06T08:05:19.546Z,13.65
2018-04-06T08:07:47.048Z,14.41
2018-04-06T08:10:14.535Z,14.67
2018-04-06T08:12:42.083Z,14.25
2018-04-06T08:15:09.586Z,14.79
2018-04-06T08:17:37.102Z,14.43
2018-04-06T08:20:04.586Z,14.52
2018-04-06T08:22:32.074Z,14.11
2018-04-06T08:24:59.577Z,14.45
2018-04-06T08:27:28.058Z,14.31
2018-04-06T08:29:55.559Z,13.99
2018-04-06T08:32:23.060Z,13.84
2018-04-06T08:34:50.566Z,14.63
2018-04-06T08:37:18.074Z,13.33
2018-04-06T08:39:45.560Z,13.67
2018-04-06T08:42:14.238Z,14.13
2018-04-06T08:44:41.786Z,13.54
2018-04-06T08:47:09.270Z,13.09
2018-04-06T08:49:36.786Z,12.35
2018-04-06T08:52:04.307Z,12.33
2018-04-06T08:54:32.315Z,12.93
2018-04-06T08:56:59.829Z,12.72
2018-04-06T08:59:27.719Z,12.02
2018-04-06T09:01:55.202Z,11.73
2018-04-06T09:04:22.690Z,10.98
2018-04-06T09:06:50.198Z,11.15
2018-04-06T09:09:17.674Z,10.49
2018-04-06T09:11:45.162Z,10.14
2018-04-06T09:14:12.648Z,10.60
2018-04-06T09:16:40.214Z,10.53
2018-04-06T09:19:07.697Z,10.76
2018-04-06T09:21:35.205Z,10.80
2018-04-06T09:24:02.691Z,10.66
2018-04-06T09:26:30.813Z,10.18
2018-04-06T09:28:58.304Z,10.00
2018-04-06T09:31:26.066Z,9.78
2018-04-06T09:33:53.701Z,10.11
2018-04-06T09:36:21.191Z,10.03
2018-04-06T09:38:48.665Z,10.50
2018-04-06T09:41:16.175Z,10.68
2018-04-06T09:43:43.662Z,10.54
2018-04-06T09:46:11.139Z,10.77
2018-04-06T09:48:38.622Z,10.66
2018-04-06T09:51:06.106Z,10.93
2018-04-06T09:53:33.628Z,10.50
2018-04-06T09:56:01.175Z,10.32
2018-04-06T09:58:28.650Z,10.51
2018-04-06T10:00:58.491Z,10.88
2018-04-06T10:03:25.971Z,10.87
2018-04-06T10:05:53.463Z,10.99
2018-04-06T10:08:21.028Z,10.96
2018-04-06T10:10:48.521Z,10.81
2018-04-06T10:13:16.097Z,11.00
2018-04-06T10:15:43.585Z,10.85
2018-04-06T10:18:11.072Z,11.13
2018-04-06T10:20:38.552Z,11.08
2018-04-06T10:23:06.042Z,11.19
2018-04-06T10:25:33.646Z,11.12
2018-04-06T10:28:01.200Z,11.33
2018-04-06T10:30:28.654Z,11.01
2018-04-06T10:32:56.158Z,10.97
2018-04-06T10:35:23.695Z,10.40
2018-04-06T10:37:51.219Z,10.49
2018-04-06T10:40:18.771Z,10.60
2018-04-06T10:42:46.270Z,11.04
2018-04-06T10:45:13.750Z,10.85
2018-04-06T10:47:41.238Z,10.31
2018-04-06T10:50:08.718Z,10.77
2018-04-06T10:52:36.189Z,10.63
2018-04-06T10:55:03.706Z,10.77
2018-04-06T10:57:31.203Z,11.28
2018-04-06T10:59:58.688Z,11.04
2018-04-06T11:02:26.182Z,11.00
2018-04-06T11:04:53.658Z,10.77
2018-04-06T11:07:21.139Z,10.88
2018-04-06T11:09:48.645Z,11.01
2018-04-06T11:12:16.132Z,11.10
2018-04-06T11:14:45.220Z,10.97
2018-04-06T11:17:12.743Z,11.25
2018-04-06T11:19:40.203Z,11.34
2018-04-06T11:22:07.694Z,11.22
2018-04-06T11:24:35.195Z,11.25
2018-04-06T11:27:02.673Z,11.00
2018-04-06T11:29:30.178Z,11.28
2018-04-06T11:31:57.662Z,10.84
2018-04-06T11:34:25.156Z,11.00
2018-04-06T11:36:52.637Z,11.20
2018-04-06T11:39:20.154Z,11.20
2018-04-06T11:41:47.646Z,11.37
2018-04-06T11:44:15.130Z,11.45
2018-04-06T11:46:42.609Z,11.31
2018-04-06T11:49:10.093Z,11.36
2018-04-06T11:51:37.575Z,11.46
2018-04-06T11:54:05.059Z,11.58
2018-04-06T11:56:32.722Z,11.76
2018-04-06T11:59:00.197Z,11.80
2018-04-06T12:01:27.681Z,11.73
2018-04-06T12:03:58.163Z,11.81
2018-04-06T12:06:25.659Z,11.79
2018-04-06T12:08:53.154Z,11.76
2018-04-06T12:11:20.632Z,12.08
2018-04-06T12:13:48.102Z,12.15
2018-04-06T12:16:15.601Z,12.00
2018-04-06T12:18:43.098Z,12.09
2018-04-06T12:21:10.603Z,12.14
2018-04-06T12:23:38.099Z,12.15
2018-04-06T12:26:05.609Z,12.25
2018-04-06T12:28:33.080Z,12.32
2018-04-06T12:31:00.574Z,12.32
2018-04-06T12:33:28.127Z,12.24
2018-04-06T12:35:55.709Z,12.26
2018-04-06T12:38:23.380Z,12.31
2018-04-06T12:40:50.942Z,12.43
2018-04-06T12:43:20.388Z,12.25
2018-04-06T12:45:47.935Z,12.22
2018-04-06T12:48:15.482Z,12.18
2018-04-06T12:50:42.983Z,12.16
2018-04-06T12:53:10.677Z,12.32
2018-04-06T12:55:38.208Z,12.47
2018-04-06T12:58:05.716Z,12.79
2018-04-06T13:00:33.198Z,12.45
2018-04-06T13:03:00.746Z,12.55
2018-04-06T13:05:28.179Z,12.62
2018-04-06T13:07:55.661Z,12.51
2018-04-06T13:10:23.358Z,12.41
2018-04-06T13:12:50.848Z,12.43
2018-04-06T13:15:18.346Z,12.68
2018-04-06T13:17:45.834Z,12.64
2018-04-06T13:20:13.318Z,12.87
2018-04-06T13:22:40.810Z,12.88
2018-04-06T13:25:08.286Z,12.79
2018-04-06T13:27:35.765Z,13.03
2018-04-06T13:30:03.237Z,12.81
2018-04-06T13:32:30.725Z,12.85
2018-04-06T13:34:58.218Z,12.95
2018-04-06T13:37:27.917Z,12.92
2018-04-06T13:39:55.645Z,12.85
2018-04-06T13:42:23.137Z,12.99
2018-04-06T13:44:51.101Z,13.15
2018-04-06T13:47:18.591Z,13.04
2018-04-06T13:49:46.246Z,13.13
2018-04-06T13:52:13.979Z,13.14
2018-04-06T13:54:41.508Z,13.07
2018-04-06T13:57:09.349Z,13.11
2018-04-06T13:59:36.867Z,13.16
2018-04-06T14:02:04.392Z,13.21
2018-04-06T14:04:31.913Z,13.36
2018-04-06T14:07:01.171Z,13.23
2018-04-06T14:09:28.682Z,13.09
2018-04-06T14:11:56.240Z,13.16
2018-04-06T14:14:23.780Z,13.38
2018-04-06T14:16:52.287Z,13.41
2018-04-06T14:19:19.781Z,13.39
2018-04-06T14:21:47.325Z,13.31
2018-04-06T14:24:17.090Z,13.43
2018-04-06T14:26:44.783Z,13.45
2018-04-06T14:29:12.364Z,13.21
2018-04-06T14:31:39.866Z,13.32
2018-04-06T14:34:07.348Z,13.23
2018-04-06T14:36:34.818Z,13.19
2018-04-06T14:39:02.298Z,13.25
2018-04-06T14:41:29.795Z,13.44
2018-04-06T14:43:57.305Z,13.52
2018-04-06T14:46:24.845Z,13.25
2018-04-06T14:48:52.686Z,13.12
2018-04-06T14:51:20.198Z,13.23
2018-04-06T14:53:47.691Z,13.27
2018-04-06T14:56:15.425Z,13.23
2018-04-06T14:58:43.765Z,13.35
2018-04-06T15:01:11.254Z,13.30
2018-04-06T15:03:39.913Z,13.26
2018-04-06T15:06:07.398Z,13.13
2018-04-06T15:08:37.569Z,13.13
2018-04-06T15:11:05.053Z,13.34
2018-04-06T15:16:06.769Z,13.41
2018-04-06T15:18:34.266Z,13.26
2018-04-06T15:21:01.748Z,13.26
2018-04-06T15:23:29.253Z,13.12
2018-04-06T15:25:56.747Z,13.24
2018-04-06T15:28:24.248Z,13.21
2018-04-06T15:30:51.753Z,13.22
2018-04-06T15:33:20.143Z,13.30
2018-04-06T15:35:47.621Z,13.28
2018-04-06T15:38:16.600Z,13.32
2018-04-06T15:40:44.136Z,13.22
2018-04-06T15:43:15.491Z,13.23
2018-04-06T15:45:43.006Z,13.07
2018-04-06T15:48:10.534Z,12.93
2018-04-06T15:50:38.016Z,12.94
2018-04-06T15:53:05.521Z,12.95
2018-04-06T15:55:33.027Z,13.01
2018-04-06T15:58:00.597Z,13.01
2018-04-06T16:00:28.133Z,12.97
2018-04-06T16:02:55.825Z,12.99
2018-04-06T16:05:25.603Z,12.84
2018-04-06T16:07:53.081Z,12.76
2018-04-06T16:10:23.430Z,12.78
2018-04-06T16:12:50.930Z,12.81
2018-04-06T16:15:18.424Z,12.75
2018-04-06T16:17:45.923Z,12.83
2018-04-06T16:20:13.436Z,12.75
2018-04-06T16:22:42.234Z,12.72
2018-04-06T16:25:09.750Z,12.71
2018-04-06T16:27:37.248Z,12.57
2018-04-06T16:30:04.729Z,12.57
2018-04-06T16:32:32.298Z,12.52
2018-04-06T16:34:59.776Z,12.53
2018-04-06T16:37:27.264Z,12.55
2018-04-06T16:39:54.831Z,12.39
2018-04-06T16:42:22.393Z,12.34
2018-04-06T16:44:49.911Z,12.27
2018-04-06T16:47:18.479Z,12.24
2018-04-06T16:49:46.140Z,12.09
2018-04-06T16:52:14.247Z,12.13
2018-04-06T16:54:41.727Z,12.12
2018-04-06T16:57:11.164Z,11.99
2018-04-06T16:59:39.158Z,11.99
2018-04-06T17:02:06.659Z,11.97
2018-04-06T17:04:34.173Z,11.90
2018-04-06T17:07:01.668Z,11.87
2018-04-06T17:09:29.169Z,11.80
2018-04-06T17:11:56.746Z,11.80
2018-04-06T17:14:24.336Z,11.75
2018-04-06T17:16:51.870Z,11.73
2018-04-06T17:19:19.451Z,11.60
2018-04-06T17:21:46.925Z,11.52
2018-04-06T17:24:14.402Z,11.49
2018-04-06T17:26:41.994Z,11.42
2018-04-06T17:29:09.514Z,11.46
2018-04-06T17:31:38.615Z,11.46
2018-04-06T17:34:06.112Z,11.39
2018-04-06T17:36:33.648Z,11.28
2018-04-06T17:39:02.667Z,11.23
2018-04-06T17:41:30.930Z,11.20
2018-04-06T17:44:00.768Z,11.17
2018-04-06T17:46:28.265Z,11.09
2018-04-06T17:48:55.747Z,11.03
2018-04-06T17:51:23.276Z,11.02
2018-04-06T17:53:50.782Z,10.94
2018-04-06T17:56:18.319Z,10.89
2018-04-06T17:58:45.851Z,10.82
2018-04-06T18:01:13.412Z,10.80
2018-04-06T18:03:40.908Z,10.77
2018-04-06T18:06:08.377Z,10.68
2018-04-06T18:08:36.087Z,10.73
2018-04-06T18:11:03.602Z,10.65
2018-04-06T18:13:31.119Z,10.59
2018-04-06T18:15:58.653Z,10.65
2018-04-06T18:18:26.170Z,10.54
2018-04-06T18:20:53.674Z,10.56
2018-04-06T18:23:21.193Z,10.43
2018-04-06T18:25:48.721Z,10.43
2018-04-06T18:28:16.255Z,10.36
2018-04-06T18:30:43.808Z,10.32
2018-04-06T18:33:11.308Z,10.34
2018-04-06T18:35:38.782Z,10.26
2018-04-06T18:38:06.281Z,10.30
2018-04-06T18:40:33.764Z,10.18
2018-04-06T18:43:01.314Z,10.15
2018-04-06T18:45:28.847Z,10.12
2018-04-06T18:47:56.320Z,10.01
2018-04-06T18:50:23.825Z,9.97
2018-04-06T18:52:51.339Z,10.01
2018-04-06T18:55:18.829Z,9.98
2018-04-06T18:57:46.328Z,9.83
2018-04-06T19:00:14.208Z,9.76
2018-04-06T19:02:42.553Z,9.74
2018-04-06T19:05:10.069Z,9.84
2018-04-06T19:08:04.789Z,9.78
2018-04-06T19:10:32.285Z,9.72
2018-04-06T19:13:00.028Z,9.68
2018-04-06T19:15:27.774Z,9.59
2018-04-06T19:17:55.306Z,9.66
2018-04-06T19:20:22.890Z,9.62
2018-04-06T19:22:51.402Z,9.57
2018-04-06T19:25:18.946Z,9.55
2018-04-06T19:27:47.338Z,9.44
2018-04-06T19:30:16.034Z,9.48
2018-04-06T19:32:43.609Z,9.44
2018-04-06T19:35:11.235Z,9.41
2018-04-06T19:37:38.822Z,9.37
2018-04-06T19:40:06.342Z,9.33
2018-04-06T19:42:33.934Z,9.26
2018-04-06T19:45:01.931Z,9.14
2018-04-06T19:47:29.580Z,8.98
2018-04-06T19:49:58.537Z,9.03
2018-04-06T19:52:26.048Z,8.92
2018-04-06T19:54:53.968Z,8.96
2018-04-06T19:57:21.634Z,9.01
2018-04-06T19:59:49.343Z,8.94
2018-04-06T20:02:16.821Z,8.93
2018-04-06T20:04:44.890Z,8.88
2018-04-06T20:07:12.404Z,8.84
2018-04-06T20:09:39.917Z,8.84
2018-04-06T20:12:07.439Z,8.79
2018-04-06T20:14:35.058Z,8.72
2018-04-06T20:17:02.577Z,8.69
2018-04-06T20:19:30.793Z,8.74
2018-04-06T20:21:58.909Z,8.66
2018-04-06T20:24:26.395Z,8.68
2018-04-06T20:26:53.903Z,8.47
2018-04-06T20:29:21.407Z,8.53
2018-04-06T20:31:49.148Z,8.54
2018-04-06T20:34:16.635Z,8.53
2018-04-06T20:36:44.156Z,8.52
2018-04-06T20:39:11.678Z,8.51
2018-04-06T20:41:39.217Z,8.52
2018-04-06T20:44:06.734Z,8.47
2018-04-06T20:46:34.312Z,8.42
2018-04-06T20:49:01.792Z,8.27
2018-04-06T20:51:29.319Z,8.21
2018-04-06T20:53:56.959Z,8.10
2018-04-06T20:56:24.474Z,8.06
2018-04-06T20:58:51.984Z,8.06
2018-04-06T21:01:19.554Z,7.96
2018-04-06T21:03:47.113Z,7.93
2018-04-06T21:06:14.649Z,7.96
2018-04-06T21:08:42.203Z,7.89
2018-04-06T21:11:09.726Z,8.01
2018-04-06T21:13:37.284Z,8.03
2018-04-06T21:16:04.786Z,8.03
2018-04-06T21:18:32.324Z,7.98
2018-04-06T21:20:59.813Z,7.88
2018-04-06T21:23:27.365Z,7.96
2018-04-06T21:25:55.429Z,8.03
2018-04-06T21:28:23.819Z,8.00
2018-04-06T21:30:51.323Z,7.96
2018-04-06T21:33:18.865Z,7.91
2018-04-06T21:35:46.509Z,7.72
2018-04-06T21:38:14.142Z,7.84
2018-04-06T21:40:42.552Z,7.79
2018-04-06T21:43:10.174Z,7.77
2018-04-06T21:45:37.758Z,7.74
2018-04-06T21:48:05.369Z,7.71
2018-04-06T21:50:33.289Z,7.72
2018-04-06T21:53:00.926Z,7.63
2018-04-06T21:55:28.573Z,7.64
2018-04-06T21:57:56.225Z,7.60
2018-04-06T22:00:23.840Z,7.64
2018-04-06T22:02:51.340Z,7.60
2018-04-06T22:05:18.955Z,7.59
2018-04-06T22:07:46.714Z,7.63
2018-04-06T22:10:14.716Z,7.46
2018-04-06T22:12:42.396Z,7.55
2018-04-06T22:15:09.883Z,7.54
2018-04-06T22:17:37.560Z,7.52
2018-04-06T22:20:05.247Z,7.50
2018-04-06T22:35:28.018Z,7.33
2018-04-06T22:37:55.686Z,7.36
2018-04-06T22:40:23.266Z,7.40
2018-04-06T22:42:50.919Z,7.44
2018-04-06T22:45:18.480Z,7.42
2018-04-06T22:47:46.052Z,7.44
2018-04-06T22:50:13.808Z,7.34
2018-04-06T22:52:41.381Z,7.45
2018-04-06T22:55:08.920Z,7.41
2018-04-06T22:57:36.408Z,7.36
2018-04-06T23:00:03.910Z,7.34
2018-04-06T23:02:31.419Z,7.36
2018-04-06T23:04:58.904Z,7.36
2018-04-06T23:07:26.423Z,7.38
2018-04-06T23:09:53.974Z,7.30
2018-04-06T23:12:21.471Z,7.34
2018-04-06T23:14:48.970Z,7.27
2018-04-06T23:17:17.694Z,7.27
2018-04-06T23:19:45.206Z,7.25
2018-04-06T23:22:13.506Z,7.29
2018-04-06T23:24:41.005Z,7.26
2018-04-06T23:27:08.530Z,7.27
2018-04-06T23:29:36.022Z,7.22
2018-04-06T23:32:03.544Z,7.19
2018-04-06T23:34:31.040Z,7.21
2018-04-06T23:36:58.521Z,7.14
2018-04-06T23:39:26.012Z,7.11
2018-04-06T23:41:53.513Z,7.13
2018-04-06T23:44:21.028Z,7.09
2018-04-06T23:46:48.514Z,7.12
2018-04-06T23:49:16.039Z,7.01
2018-04-06T23:51:43.516Z,7.02
2018-04-06T23:54:11.020Z,7.04
2018-04-06T23:56:38.524Z,7.00
2018-04-06T23:59:06.008Z,7.03
